Relevés horaires Koksijde (Belgique)


Relevés horaires à Koksijde - Jeudi 02 Mars 2023
Heure UTC1 Température [°C] Vent [km/h] Hum. [%] Pres.4 [hPa] Visi. [Km] Nébu. [octa] Préc.5 [mm] Cond.
2m. Res. Ros. Dir.2 Vit. Moy. Raf.3
23:00 3.8 1.9 1.9 NNE 7.4 -- 11.1 87 1024.7(0.4/3h) 7 -- -- --
22:00 4.2 2.9 3.2 NE 5.6 -- 14.8 93 1024.7(0.7/3h) 4.3 -- -- Du brouillard ou du brouillard glacé (plus correctement designé sous le nom de brume) est observé et la visibilité n'est ni inférieure à 5/8 de mille ni supérieure à 6 milles
20:00 5.1 2.6 3.4 NE 11.1 -- 20.4 89 1024.2(1.2/3h) 7 3/8 -- --
19:00 5.3 2.4 3.2 NNE 13.0 -- 20.4 86 1024(1.2/3h) 7 2/8 -- --
18:00 4.7 2.1 2.9 NNE 11.1 -- 22.2 88 1023.5(0.8/3h) 7 1/8 -- --
17:00 5.0 2.1 2.8 NNE 13.0 -- 20.4 86 1023.1(0.1/3h) 8 1/8 -- --
16:00 5.9 2.9 2.5 NNE 14.8 -- 22.2 79 1022.7(-0.6/3h) 12 1/8 -- --
15:00 6.4 3.5 1.7 NNE 14.8 -- 20.4 72 1022.7(-0.9/3h) 15 0/8 -- --
14:00 6.7 4.1 0.7 NNE 13.0 -- 20.4 65 1023(-0.6/3h) 15 0/8 -- --
13:00 6.3 3.7 0.1 NNE 13.0 -- 16.7 64 1023.2(-0.3/3h) 15 0/8 -- --
12:00 5.8 3.4 -- NNE 11.1 -- 16.7 -- 1023.6(-0.3/3h) 15 0/8 -- --
11:00 5.5 3.9 0.2 NE 7.4 -- 13.0 69 1023.6(-0.4/3h) 15 0/8 -- --
10:00 4.8 3.1 -0.4 ENE 7.4 -- 14.8 69 1023.6(-0.2/3h) 13 0/8 -- --
09:00 2.9 0.3 -1.1 NE 9.3 -- 13.0 75 1023.8(0.5/3h) 12 0/8 -- --
08:00 1.3 -0.4 -1.1 NE 5.6 -- 9.3 84 1024(0.4/3h) 8 1/8 -- --
06:00 0.5 -1.3 -2.3 NE 5.6 -- 9.3 81 1023.3(0.1/3h) 10 0/8 -- --
05:00 0.1 -1.7 -3.2 NE 5.6 -- 9.3 78 1023.5(-0.2/3h) 20 -- -- --
04:00 0.1 -1.7 -3.3 NE 5.6 -- 9.3 78 1023.3(-0.8/3h) 20 -- -- --
03:00 -0.1 -2 -3.7 NE 5.6 -- 9.3 77 1023.5(-1.1/3h) 20 -- -- --
02:00 -0.1 -2 -3.6 NE 5.6 -- 9.3 77 1023.7(-0.8/3h) 20 -- -- --
01:00 0.8 -0.9 -3.5 NE 5.6 -- 9.3 73 1024.2(-0.4/3h) 20 -- -- --
00:00 1.5 -0.1 -3.9 NE 5.6 -- 13.0 67 1024.7(0.1/3h) 20 -- -- --

1 Coordinated Universal Time. Actuellement il est 23:00 locale et 21:00 UTC.

2 Le vent souffle depuis la direction indiquée vers la direction oposée.

3 Les rafales max. sont disponible 40 min après l'heure du relevé.

4 Pour les stations d'altitude (plus de 600m) le géopotentiel du niveau le plus proche de la pression obligatoire est indiqué.

5 Les stations disposant d'un diffuseur peuvent indiquer "trace". Cela signifie que des précipitations ont touchés le sol mais que la quantité est inférieure à 0.1 mm.

Récapitulatif de la journée
Température [°C] Vent [km/h] Ensoleillement4 [h] Precipitations totale5 [mm] Pression [Hpa]
Min1 Max.2 Moy.3 Max. Min Max.
-0.6 7.0 0 22.2 0 h 0 min 0 1022.7 1024.7

1 Température minimale relevée entre 18:00 UTC la veille et 18:00 UTC le jour donné.

2 Température maximale relevée entre 06:00 UTC le jour donné et 06:00 UTC le lendemain.

3 Vent moyen de la journée basé sur les relevés horaires.

4 Ensoleillement en heures relevé entre 06:00 UTC la veille et 06:00 UTC le jour donné.

5 Précipitations totales tombées entre 06:00 UTC la jour donné et 06:00 UTC le lendemain.

Graphiques horaires